sensor_id;sensor_type;location;lat;lon;timestamp;pressure;altitude;pressure_sealevel;temperature
5571;BMP180;2808;51.240;6.794;2022-11-22T11:50:46;98939.00;;;8.80
5571;BMP180;2808;51.240;6.794;2022-11-22T11:53:17;98930.00;;;8.90
5571;BMP180;2808;51.240;6.794;2022-11-22T11:55:50;98938.00;;;9.10
5571;BMP180;2808;51.240;6.794;2022-11-22T11:58:20;98933.00;;;9.20
5571;BMP180;2808;51.240;6.794;2022-11-22T12:00:50;98929.00;;;9.30
5571;BMP180;2808;51.240;6.794;2022-11-22T12:03:19;98936.00;;;9.40
5571;BMP180;2808;51.240;6.794;2022-11-22T12:05:49;98930.00;;;9.40
5571;BMP180;2808;51.240;6.794;2022-11-22T12:08:35;98933.00;;;9.40
5571;BMP180;2808;51.240;6.794;2022-11-22T12:11:06;98930.00;;;9.40
5571;BMP180;2808;51.240;6.794;2022-11-22T12:13:39;98935.00;;;9.40
5571;BMP180;2808;51.240;6.794;2022-11-22T12:16:13;98926.00;;;9.40
5571;BMP180;2808;51.240;6.794;2022-11-22T12:18:50;98934.00;;;9.30
5571;BMP180;2808;51.240;6.794;2022-11-22T12:21:25;98935.00;;;9.30
5571;BMP180;2808;51.240;6.794;2022-11-22T12:23:59;98933.00;;;9.40
5571;BMP180;2808;51.240;6.794;2022-11-22T12:26:28;98923.00;;;9.40
5571;BMP180;2808;51.240;6.794;2022-11-22T12:28:57;98935.00;;;9.30
5571;BMP180;2808;51.240;6.794;2022-11-22T12:31:28;98935.00;;;9.30
5571;BMP180;2808;51.240;6.794;2022-11-22T12:34:01;98932.00;;;9.40
5571;BMP180;2808;51.240;6.794;2022-11-22T12:36:40;98930.00;;;9.40
5571;BMP180;2808;51.240;6.794;2022-11-22T12:39:13;98927.00;;;9.40
5571;BMP180;2808;51.240;6.794;2022-11-22T12:41:43;98933.00;;;9.50
5571;BMP180;2808;51.240;6.794;2022-11-22T12:44:15;98928.00;;;9.40
5571;BMP180;2808;51.240;6.794;2022-11-22T12:46:48;98930.00;;;9.40
5571;BMP180;2808;51.240;6.794;2022-11-22T12:49:24;98933.00;;;9.40
5571;BMP180;2808;51.240;6.794;2022-11-22T12:52:00;98937.00;;;9.40
5571;BMP180;2808;51.240;6.794;2022-11-22T12:54:39;98928.00;;;9.40
5571;BMP180;2808;51.240;6.794;2022-11-22T12:57:15;98930.00;;;9.30
5571;BMP180;2808;51.240;6.794;2022-11-22T12:59:50;98932.00;;;9.20
5571;BMP180;2808;51.240;6.794;2022-11-22T13:02:28;98934.00;;;9.20
5571;BMP180;2808;51.240;6.794;2022-11-22T13:05:01;98937.00;;;9.20
5571;BMP180;2808;51.240;6.794;2022-11-22T13:07:48;98936.00;;;9.20
5571;BMP180;2808;51.240;6.794;2022-11-22T13:10:27;98947.00;;;9.20
5571;BMP180;2808;51.240;6.794;2022-11-22T13:12:58;98939.00;;;9.10
5571;BMP180;2808;51.240;6.794;2022-11-22T13:15:30;98940.00;;;9.10
5571;BMP180;2808;51.240;6.794;2022-11-22T13:17:58;98936.00;;;9.10
5571;BMP180;2808;51.240;6.794;2022-11-22T13:20:29;98935.00;;;9.10
5571;BMP180;2808;51.240;6.794;2022-11-22T13:23:12;98945.00;;;9.10
5571;BMP180;2808;51.240;6.794;2022-11-22T13:25:57;98933.00;;;9.10
5571;BMP180;2808;51.240;6.794;2022-11-22T13:28:28;98937.00;;;9.20
5571;BMP180;2808;51.240;6.794;2022-11-22T13:31:19;98947.00;;;9.20
5571;BMP180;2808;51.240;6.794;2022-11-22T13:33:55;98939.00;;;9.20
5571;BMP180;2808;51.240;6.794;2022-11-22T13:36:36;98943.00;;;9.20
5571;BMP180;2808;51.240;6.794;2022-11-22T13:39:14;98934.00;;;9.10
5571;BMP180;2808;51.240;6.794;2022-11-22T13:41:52;98935.00;;;9.10
5571;BMP180;2808;51.240;6.794;2022-11-22T13:44:49;98942.00;;;9.10
5571;BMP180;2808;51.240;6.794;2022-11-22T13:47:37;98937.00;;;9.10
5571;BMP180;2808;51.240;6.794;2022-11-22T13:53:21;98942.00;;;9.00
5571;BMP180;2808;51.240;6.794;2022-11-22T13:55:53;98946.00;;;9.00
5571;BMP180;2808;51.240;6.794;2022-11-22T13:58:52;98942.00;;;9.10
5571;BMP180;2808;51.240;6.794;2022-11-22T14:01:55;98943.00;;;9.10
5571;BMP180;2808;51.240;6.794;2022-11-22T14:04:37;98943.00;;;9.00
5571;BMP180;2808;51.240;6.794;2022-11-22T14:07:22;98944.00;;;9.00
5571;BMP180;2808;51.240;6.794;2022-11-22T14:09:57;98947.00;;;9.00
5571;BMP180;2808;51.240;6.794;2022-11-22T14:18:49;98939.00;;;9.10
5571;BMP180;2808;51.240;6.794;2022-11-22T14:21:37;98942.00;;;9.10
5571;BMP180;2808;51.240;6.794;2022-11-22T14:24:15;98944.00;;;9.10
5571;BMP180;2808;51.240;6.794;2022-11-22T14:26:52;98953.00;;;9.10
5571;BMP180;2808;51.240;6.794;2022-11-22T14:29:56;98947.00;;;9.00
5571;BMP180;2808;51.240;6.794;2022-11-22T14:32:40;98941.00;;;9.00
5571;BMP180;2808;51.240;6.794;2022-11-22T14:35:23;98943.00;;;9.00
5571;BMP180;2808;51.240;6.794;2022-11-22T14:37:58;98936.00;;;9.00
5571;BMP180;2808;51.240;6.794;2022-11-22T14:40:31;98931.00;;;9.00
5571;BMP180;2808;51.240;6.794;2022-11-22T14:43:20;98933.00;;;9.00
5571;BMP180;2808;51.240;6.794;2022-11-22T14:45:56;98932.00;;;9.00
5571;BMP180;2808;51.240;6.794;2022-11-22T14:48:30;98927.00;;;9.00
5571;BMP180;2808;51.240;6.794;2022-11-22T14:51:21;98929.00;;;9.00
5571;BMP180;2808;51.240;6.794;2022-11-22T14:53:55;98937.00;;;9.00
5571;BMP180;2808;51.240;6.794;2022-11-22T14:56:31;98947.00;;;9.00
5571;BMP180;2808;51.240;6.794;2022-11-22T14:59:08;98942.00;;;9.00
5571;BMP180;2808;51.240;6.794;2022-11-22T15:02:00;98946.00;;;9.00
5571;BMP180;2808;51.240;6.794;2022-11-22T15:04:48;98942.00;;;9.00
5571;BMP180;2808;51.240;6.794;2022-11-22T15:07:36;98946.00;;;8.90
5571;BMP180;2808;51.240;6.794;2022-11-22T15:13:26;98944.00;;;8.90
5571;BMP180;2808;51.240;6.794;2022-11-22T15:15:59;98942.00;;;8.90
5571;BMP180;2808;51.240;6.794;2022-11-22T15:18:32;98939.00;;;8.90
5571;BMP180;2808;51.240;6.794;2022-11-22T15:21:12;98948.00;;;8.90
5571;BMP180;2808;51.240;6.794;2022-11-22T15:23:41;98950.00;;;8.90
5571;BMP180;2808;51.240;6.794;2022-11-22T15:26:14;98962.00;;;8.90
5571;BMP180;2808;51.240;6.794;2022-11-22T15:28:45;98953.00;;;8.80
5571;BMP180;2808;51.240;6.794;2022-11-22T15:31:15;98959.00;;;8.80
5571;BMP180;2808;51.240;6.794;2022-11-22T15:33:50;98957.00;;;8.80
5571;BMP180;2808;51.240;6.794;2022-11-22T15:36:37;98958.00;;;8.80
5571;BMP180;2808;51.240;6.794;2022-11-22T15:39:11;98958.00;;;8.80
5571;BMP180;2808;51.240;6.794;2022-11-22T15:41:39;98957.00;;;8.80
5571;BMP180;2808;51.240;6.794;2022-11-22T15:44:10;98967.00;;;8.80
5571;BMP180;2808;51.240;6.794;2022-11-22T15:46:39;98972.00;;;8.80
5571;BMP180;2808;51.240;6.794;2022-11-22T15:49:13;98964.00;;;8.70
5571;BMP180;2808;51.240;6.794;2022-11-22T15:51:54;98978.00;;;8.70
5571;BMP180;2808;51.240;6.794;2022-11-22T15:54:23;98976.00;;;8.70
5571;BMP180;2808;51.240;6.794;2022-11-22T15:56:55;98978.00;;;8.70
5571;BMP180;2808;51.240;6.794;2022-11-22T15:59:28;98980.00;;;8.70
5571;BMP180;2808;51.240;6.794;2022-11-22T16:01:58;98981.00;;;8.60
5571;BMP180;2808;51.240;6.794;2022-11-22T16:04:29;98987.00;;;8.60
5571;BMP180;2808;51.240;6.794;2022-11-22T16:06:59;98981.00;;;8.60
5571;BMP180;2808;51.240;6.794;2022-11-22T16:09:33;98990.00;;;8.50
5571;BMP180;2808;51.240;6.794;2022-11-22T16:12:02;98993.00;;;8.50
5571;BMP180;2808;51.240;6.794;2022-11-22T16:14:51;98989.00;;;8.50
5571;BMP180;2808;51.240;6.794;2022-11-22T16:17:27;99001.00;;;8.50
5571;BMP180;2808;51.240;6.794;2022-11-22T16:20:25;98996.00;;;8.50
5571;BMP180;2808;51.240;6.794;2022-11-22T16:23:23;98990.00;;;8.50
5571;BMP180;2808;51.240;6.794;2022-11-22T16:25:58;99000.00;;;8.50
5571;BMP180;2808;51.240;6.794;2022-11-22T16:28:32;98987.00;;;8.50
5571;BMP180;2808;51.240;6.794;2022-11-22T16:31:03;98999.00;;;8.50
5571;BMP180;2808;51.240;6.794;2022-11-22T16:33:31;99011.00;;;8.50
5571;BMP180;2808;51.240;6.794;2022-11-22T16:36:02;99007.00;;;8.50
5571;BMP180;2808;51.240;6.794;2022-11-22T16:38:32;99013.00;;;8.50
5571;BMP180;2808;51.240;6.794;2022-11-22T16:41:00;99016.00;;;8.40
5571;BMP180;2808;51.240;6.794;2022-11-22T16:43:33;99020.00;;;8.30
5571;BMP180;2808;51.240;6.794;2022-11-22T16:46:02;99014.00;;;8.30
5571;BMP180;2808;51.240;6.794;2022-11-22T16:48:30;99028.00;;;8.30
5571;BMP180;2808;51.240;6.794;2022-11-22T16:51:02;99033.00;;;8.30
5571;BMP180;2808;51.240;6.794;2022-11-22T16:53:36;99030.00;;;8.30
5571;BMP180;2808;51.240;6.794;2022-11-22T16:56:06;99041.00;;;8.30
5571;BMP180;2808;51.240;6.794;2022-11-22T16:58:34;99033.00;;;8.30
5571;BMP180;2808;51.240;6.794;2022-11-22T17:01:02;99044.00;;;8.30
5571;BMP180;2808;51.240;6.794;2022-11-22T17:03:30;99036.00;;;8.20
5571;BMP180;2808;51.240;6.794;2022-11-22T17:05:59;99034.00;;;8.10
5571;BMP180;2808;51.240;6.794;2022-11-22T17:08:28;99039.00;;;8.10
5571;BMP180;2808;51.240;6.794;2022-11-22T17:10:55;99040.00;;;8.10
5571;BMP180;2808;51.240;6.794;2022-11-22T17:13:25;99048.00;;;8.00
5571;BMP180;2808;51.240;6.794;2022-11-22T17:15:54;99044.00;;;8.00
5571;BMP180;2808;51.240;6.794;2022-11-22T17:18:22;99050.00;;;8.00
5571;BMP180;2808;51.240;6.794;2022-11-22T17:20:49;99053.00;;;8.00
5571;BMP180;2808;51.240;6.794;2022-11-22T17:23:23;99062.00;;;8.00
5571;BMP180;2808;51.240;6.794;2022-11-22T17:25:54;99058.00;;;7.90
5571;BMP180;2808;51.240;6.794;2022-11-22T17:28:22;99055.00;;;7.80
5571;BMP180;2808;51.240;6.794;2022-11-22T17:30:49;99065.00;;;7.80
5571;BMP180;2808;51.240;6.794;2022-11-22T17:33:17;99061.00;;;7.80
5571;BMP180;2808;51.240;6.794;2022-11-22T17:35:45;99076.00;;;7.80
5571;BMP180;2808;51.240;6.794;2022-11-22T17:38:12;99071.00;;;7.80
5571;BMP180;2808;51.240;6.794;2022-11-22T17:40:40;99076.00;;;7.80
5571;BMP180;2808;51.240;6.794;2022-11-22T17:43:11;99080.00;;;7.80
5571;BMP180;2808;51.240;6.794;2022-11-22T17:45:41;99075.00;;;7.80
5571;BMP180;2808;51.240;6.794;2022-11-22T17:48:10;99072.00;;;7.80
5571;BMP180;2808;51.240;6.794;2022-11-22T17:50:40;99070.00;;;7.80
5571;BMP180;2808;51.240;6.794;2022-11-22T17:53:08;99076.00;;;7.80
5571;BMP180;2808;51.240;6.794;2022-11-22T17:55:38;99084.00;;;7.80
5571;BMP180;2808;51.240;6.794;2022-11-22T17:58:07;99083.00;;;7.70
5571;BMP180;2808;51.240;6.794;2022-11-22T18:00:42;99090.00;;;7.80
5571;BMP180;2808;51.240;6.794;2022-11-22T18:03:14;99086.00;;;7.80
5571;BMP180;2808;51.240;6.794;2022-11-22T18:05:41;99091.00;;;7.80
5571;BMP180;2808;51.240;6.794;2022-11-22T18:08:09;99093.00;;;7.80
5571;BMP180;2808;51.240;6.794;2022-11-22T18:10:37;99090.00;;;7.80
5571;BMP180;2808;51.240;6.794;2022-11-22T18:13:05;99100.00;;;7.80
5571;BMP180;2808;51.240;6.794;2022-11-22T18:15:32;99102.00;;;7.80
5571;BMP180;2808;51.240;6.794;2022-11-22T18:18:01;99099.00;;;7.80
5571;BMP180;2808;51.240;6.794;2022-11-22T18:20:29;99098.00;;;7.80
5571;BMP180;2808;51.240;6.794;2022-11-22T18:22:56;99105.00;;;7.80
5571;BMP180;2808;51.240;6.794;2022-11-22T18:32:14;99103.00;;;7.80
5571;BMP180;2808;51.240;6.794;2022-11-22T18:34:43;99103.00;;;7.80
5571;BMP180;2808;51.240;6.794;2022-11-22T18:37:11;99106.00;;;7.80
5571;BMP180;2808;51.240;6.794;2022-11-22T18:39:38;99099.00;;;7.80
5571;BMP180;2808;51.240;6.794;2022-11-22T18:42:12;99096.00;;;7.70
5571;BMP180;2808;51.240;6.794;2022-11-22T18:44:39;99098.00;;;7.70
5571;BMP180;2808;51.240;6.794;2022-11-22T18:47:07;99096.00;;;7.70
5571;BMP180;2808;51.240;6.794;2022-11-22T18:49:34;99096.00;;;7.70
5571;BMP180;2808;51.240;6.794;2022-11-22T18:52:03;99097.00;;;7.70
5571;BMP180;2808;51.240;6.794;2022-11-22T18:54:32;99091.00;;;7.70
5571;BMP180;2808;51.240;6.794;2022-11-22T18:57:00;99097.00;;;7.70
5571;BMP180;2808;51.240;6.794;2022-11-22T18:59:30;99099.00;;;7.80
5571;BMP180;2808;51.240;6.794;2022-11-22T19:01:57;99099.00;;;7.80
5571;BMP180;2808;51.240;6.794;2022-11-22T19:04:25;99106.00;;;7.70
5571;BMP180;2808;51.240;6.794;2022-11-22T19:06:52;99104.00;;;7.80
5571;BMP180;2808;51.240;6.794;2022-11-22T19:09:21;99099.00;;;7.70
5571;BMP180;2808;51.240;6.794;2022-11-22T19:11:52;99105.00;;;7.80
5571;BMP180;2808;51.240;6.794;2022-11-22T19:14:22;99102.00;;;7.80
5571;BMP180;2808;51.240;6.794;2022-11-22T19:16:49;99105.00;;;7.80
5571;BMP180;2808;51.240;6.794;2022-11-22T19:19:17;99111.00;;;7.80
5571;BMP180;2808;51.240;6.794;2022-11-22T19:21:44;99105.00;;;7.80
5571;BMP180;2808;51.240;6.794;2022-11-22T19:24:14;99109.00;;;7.80
5571;BMP180;2808;51.240;6.794;2022-11-22T19:26:46;99106.00;;;7.80
5571;BMP180;2808;51.240;6.794;2022-11-22T19:29:14;99102.00;;;7.90
5571;BMP180;2808;51.240;6.794;2022-11-22T19:31:41;99101.00;;;7.90
5571;BMP180;2808;51.240;6.794;2022-11-22T19:34:09;99096.00;;;7.90
5571;BMP180;2808;51.240;6.794;2022-11-22T19:36:37;99109.00;;;7.90
5571;BMP180;2808;51.240;6.794;2022-11-22T19:39:09;99099.00;;;7.90
5571;BMP180;2808;51.240;6.794;2022-11-22T19:41:40;99098.00;;;7.90
5571;BMP180;2808;51.240;6.794;2022-11-22T19:44:14;99094.00;;;7.90
5571;BMP180;2808;51.240;6.794;2022-11-22T19:46:41;99102.00;;;7.90
5571;BMP180;2808;51.240;6.794;2022-11-22T19:49:12;99092.00;;;7.90
5571;BMP180;2808;51.240;6.794;2022-11-22T19:51:42;99095.00;;;7.90
5571;BMP180;2808;51.240;6.794;2022-11-22T19:54:09;99102.00;;;8.00
5571;BMP180;2808;51.240;6.794;2022-11-22T19:56:38;99102.00;;;8.00
5571;BMP180;2808;51.240;6.794;2022-11-22T19:59:11;99102.00;;;8.00
5571;BMP180;2808;51.240;6.794;2022-11-22T20:01:42;99100.00;;;8.10
5571;BMP180;2808;51.240;6.794;2022-11-22T20:04:12;99106.00;;;8.10
5571;BMP180;2808;51.240;6.794;2022-11-22T20:06:41;99103.00;;;8.10
5571;BMP180;2808;51.240;6.794;2022-11-22T20:09:10;99106.00;;;8.10
5571;BMP180;2808;51.240;6.794;2022-11-22T20:11:39;99108.00;;;8.20
5571;BMP180;2808;51.240;6.794;2022-11-22T20:14:07;99106.00;;;8.20
5571;BMP180;2808;51.240;6.794;2022-11-22T20:16:37;99114.00;;;8.20
5571;BMP180;2808;51.240;6.794;2022-11-22T20:19:06;99116.00;;;8.20
5571;BMP180;2808;51.240;6.794;2022-11-22T20:21:35;99100.00;;;8.20
5571;BMP180;2808;51.240;6.794;2022-11-22T20:24:03;99112.00;;;8.20
5571;BMP180;2808;51.240;6.794;2022-11-22T20:26:32;99100.00;;;8.20
5571;BMP180;2808;51.240;6.794;2022-11-22T20:29:02;99108.00;;;8.30
5571;BMP180;2808;51.240;6.794;2022-11-22T20:31:31;99112.00;;;8.30
5571;BMP180;2808;51.240;6.794;2022-11-22T20:34:02;99102.00;;;8.30
5571;BMP180;2808;51.240;6.794;2022-11-22T20:36:34;99119.00;;;8.30
5571;BMP180;2808;51.240;6.794;2022-11-22T20:39:04;99112.00;;;8.40
5571;BMP180;2808;51.240;6.794;2022-11-22T20:41:34;99112.00;;;8.40
5571;BMP180;2808;51.240;6.794;2022-11-22T20:44:01;99115.00;;;8.40
5571;BMP180;2808;51.240;6.794;2022-11-22T20:46:29;99106.00;;;8.40
5571;BMP180;2808;51.240;6.794;2022-11-22T20:49:03;99117.00;;;8.40
5571;BMP180;2808;51.240;6.794;2022-11-22T20:51:31;99113.00;;;8.50
5571;BMP180;2808;51.240;6.794;2022-11-22T20:54:01;99118.00;;;8.50
5571;BMP180;2808;51.240;6.794;2022-11-22T20:56:28;99125.00;;;8.50
5571;BMP180;2808;51.240;6.794;2022-11-22T20:58:57;99138.00;;;8.50
5571;BMP180;2808;51.240;6.794;2022-11-22T21:01:31;99134.00;;;8.50
5571;BMP180;2808;51.240;6.794;2022-11-22T21:04:00;99136.00;;;8.50
5571;BMP180;2808;51.240;6.794;2022-11-22T21:06:28;99135.00;;;8.50
5571;BMP180;2808;51.240;6.794;2022-11-22T21:08:59;99137.00;;;8.60
5571;BMP180;2808;51.240;6.794;2022-11-22T21:11:28;99139.00;;;8.60
5571;BMP180;2808;51.240;6.794;2022-11-22T21:13:56;99132.00;;;8.60
5571;BMP180;2808;51.240;6.794;2022-11-22T21:16:25;99129.00;;;8.60
5571;BMP180;2808;51.240;6.794;2022-11-22T21:18:56;99136.00;;;8.60
5571;BMP180;2808;51.240;6.794;2022-11-22T21:21:31;99139.00;;;8.60
5571;BMP180;2808;51.240;6.794;2022-11-22T21:24:00;99145.00;;;8.60
5571;BMP180;2808;51.240;6.794;2022-11-22T21:26:30;99133.00;;;8.60
5571;BMP180;2808;51.240;6.794;2022-11-22T21:28:59;99139.00;;;8.70
5571;BMP180;2808;51.240;6.794;2022-11-22T21:31:29;99133.00;;;8.70
5571;BMP180;2808;51.240;6.794;2022-11-22T21:33:56;99144.00;;;8.60
5571;BMP180;2808;51.240;6.794;2022-11-22T21:36:27;99144.00;;;8.60
5571;BMP180;2808;51.240;6.794;2022-11-22T21:38:56;99141.00;;;8.60
5571;BMP180;2808;51.240;6.794;2022-11-22T21:41:23;99140.00;;;8.60
5571;BMP180;2808;51.240;6.794;2022-11-22T21:43:53;99138.00;;;8.60
5571;BMP180;2808;51.240;6.794;2022-11-22T21:46:29;99145.00;;;8.60
5571;BMP180;2808;51.240;6.794;2022-11-22T21:48:57;99138.00;;;8.60
5571;BMP180;2808;51.240;6.794;2022-11-22T21:51:28;99138.00;;;8.60
5571;BMP180;2808;51.240;6.794;2022-11-22T21:54:00;99138.00;;;8.60
5571;BMP180;2808;51.240;6.794;2022-11-22T21:56:27;99135.00;;;8.60
5571;BMP180;2808;51.240;6.794;2022-11-22T21:58:55;99139.00;;;8.60
5571;BMP180;2808;51.240;6.794;2022-11-22T22:01:23;99147.00;;;8.60
5571;BMP180;2808;51.240;6.794;2022-11-22T22:03:50;99146.00;;;8.60
5571;BMP180;2808;51.240;6.794;2022-11-22T22:06:21;99150.00;;;8.60
5571;BMP180;2808;51.240;6.794;2022-11-22T22:08:52;99147.00;;;8.60
5571;BMP180;2808;51.240;6.794;2022-11-22T22:11:27;99143.00;;;8.60
5571;BMP180;2808;51.240;6.794;2022-11-22T22:13:55;99147.00;;;8.60
5571;BMP180;2808;51.240;6.794;2022-11-22T22:16:24;99148.00;;;8.60
5571;BMP180;2808;51.240;6.794;2022-11-22T22:18:52;99151.00;;;8.60
5571;BMP180;2808;51.240;6.794;2022-11-22T22:21:20;99142.00;;;8.60
5571;BMP180;2808;51.240;6.794;2022-11-22T22:23:47;99145.00;;;8.50
5571;BMP180;2808;51.240;6.794;2022-11-22T22:26:17;99148.00;;;8.50
5571;BMP180;2808;51.240;6.794;2022-11-22T22:28:45;99150.00;;;8.50
5571;BMP180;2808;51.240;6.794;2022-11-22T22:31:13;99148.00;;;8.50
5571;BMP180;2808;51.240;6.794;2022-11-22T22:33:42;99157.00;;;8.50
5571;BMP180;2808;51.240;6.794;2022-11-22T22:36:14;99154.00;;;8.50
5571;BMP180;2808;51.240;6.794;2022-11-22T22:38:41;99161.00;;;8.50
5571;BMP180;2808;51.240;6.794;2022-11-22T22:41:10;99164.00;;;8.50
5571;BMP180;2808;51.240;6.794;2022-11-22T22:43:41;99164.00;;;8.50
5571;BMP180;2808;51.240;6.794;2022-11-22T22:46:11;99171.00;;;8.40
5571;BMP180;2808;51.240;6.794;2022-11-22T22:48:39;99168.00;;;8.50
5571;BMP180;2808;51.240;6.794;2022-11-22T22:51:09;99167.00;;;8.50
5571;BMP180;2808;51.240;6.794;2022-11-22T22:53:37;99170.00;;;8.50
5571;BMP180;2808;51.240;6.794;2022-11-22T22:56:05;99175.00;;;8.50
5571;BMP180;2808;51.240;6.794;2022-11-22T22:58:33;99170.00;;;8.50
5571;BMP180;2808;51.240;6.794;2022-11-22T23:01:07;99179.00;;;8.50
5571;BMP180;2808;51.240;6.794;2022-11-22T23:03:35;99182.00;;;8.50
5571;BMP180;2808;51.240;6.794;2022-11-22T23:06:07;99175.00;;;8.50
5571;BMP180;2808;51.240;6.794;2022-11-22T23:08:35;99192.00;;;8.50
5571;BMP180;2808;51.240;6.794;2022-11-22T23:11:04;99182.00;;;8.50
5571;BMP180;2808;51.240;6.794;2022-11-22T23:13:33;99195.00;;;8.50
5571;BMP180;2808;51.240;6.794;2022-11-22T23:16:03;99183.00;;;8.50
5571;BMP180;2808;51.240;6.794;2022-11-22T23:18:34;99192.00;;;8.50
5571;BMP180;2808;51.240;6.794;2022-11-22T23:21:02;99189.00;;;8.50
5571;BMP180;2808;51.240;6.794;2022-11-22T23:23:31;99189.00;;;8.50
5571;BMP180;2808;51.240;6.794;2022-11-22T23:26:01;99194.00;;;8.40
5571;BMP180;2808;51.240;6.794;2022-11-22T23:28:29;99188.00;;;8.40
5571;BMP180;2808;51.240;6.794;2022-11-22T23:31:02;99190.00;;;8.50
5571;BMP180;2808;51.240;6.794;2022-11-22T23:33:30;99196.00;;;8.50
5571;BMP180;2808;51.240;6.794;2022-11-22T23:36:01;99190.00;;;8.50
5571;BMP180;2808;51.240;6.794;2022-11-22T23:38:29;99197.00;;;8.50
5571;BMP180;2808;51.240;6.794;2022-11-22T23:40:59;99204.00;;;8.50
5571;BMP180;2808;51.240;6.794;2022-11-22T23:43:26;99204.00;;;8.50
5571;BMP180;2808;51.240;6.794;2022-11-22T23:45:54;99195.00;;;8.50
5571;BMP180;2808;51.240;6.794;2022-11-22T23:48:23;99203.00;;;8.50
5571;BMP180;2808;51.240;6.794;2022-11-22T23:50:52;99203.00;;;8.50
5571;BMP180;2808;51.240;6.794;2022-11-22T23:53:20;99197.00;;;8.50
5571;BMP180;2808;51.240;6.794;2022-11-22T23:55:47;99202.00;;;8.50
5571;BMP180;2808;51.240;6.794;2022-11-22T23:58:14;99210.00;;;8.50
